KLCI/LCI METAR and TAF weather

Enter ICAO airport designator
Station Type Date Time Source
KLCI METAR 2020/12/05 05:56 UTC NOAA

KLCI 050556Z AUTO 00000KT 10SM FEW080 BKN095 02/01 A2987 RMK AO2 SLP119 T00220006 10061 20017 58003 FZRANO


Station Type Date Time Source
KLCI Decoded METAR 2020/12/05 05:56 UTC NOAA

Laconia, Laconia Municipal Airport, NH, United States (KLCI) 43-34N 071-25W
Dec 05, 2020 - 12:56 AM EST / 2020.12.05 0556 UTC
Wind: Calm:0
Visibility: 10 mile(s):0
Sky conditions: mostly cloudy
Temperature: 36.0 F (2.2 C)
Dew Point: 33.1 F (0.6 C)
Relative Humidity: 89%
Pressure (altimeter): 29.87 in. Hg (1011 hPa)
Pressure tendency: 0.01 inches (0.3 hPa) lower than three hours ago
ob: KLCI 050556Z AUTO 00000KT 10SM FEW080 BKN095 02/01 A2987 RMK AO2 SLP119 T00220006 10061 20017 58003 FZRANO
cycle: 6

Station Type Date Time Source
KLCI TAF UTC NOAA

Error!

Example: see airport list